Shin Puropan Maru — JG5508 — position and weather

sailwx.info

Track history (hours):
 
Tides and Currents Weather Stations Pressure Air Temp Water Temp Dewpoint Dewpoint Depression Visibility Wind Speed Wind Dir Waves Ship Positions

Shin Puropan Maru

Last reported at 2017-Oct-16 05:32 UTC. Time now 2017-Oct-19 12:59 UTC.
Position N 34°37' E 134°57'.

Length 66 m; draft 3.6 m.

Type: Ship (hazmat cat A). MMSI: 431100348.

Date/timePositionNaut miles runAvg speedWind from/ knotsBaromVisibWave heightAir tempDewpointWater temp
2017-Oct-16 05:32N 34°37' E 134°57'012.1
2017-Oct-16 05:30N 34°37' E 134°57'510.6
2017-Oct-16 05:01N 34°36' E 135°03'611.1
2017-Oct-16 04:30N 34°36' E 135°10'612.2
2017-Oct-16 04:00N 34°36' E 135°18'611.7
2017-Oct-16 03:31N 34°36' E 135°25'2 0.5
2017-Oct-15 23:50N 34°34' E 135°26'0 1.0
2017-Oct-15 23:30N 34°35' E 135°26'0 0.8
2017-Oct-15 23:00N 34°35' E 135°25'3 6.1
2017-Oct-15 22:31N 34°36' E 135°22'5 8.9
2017-Oct-15 21:59N 34°33' E 135°18'4 7.6
2017-Oct-15 21:30N 34°30' E 135°15'5 9.7
2017-Oct-15 20:57N 34°27' E 135°10'510.3
2017-Oct-15 20:30N 34°24' E 135°06'1110.6
2017-Oct-15 19:27N 34°14' E 134°60'511.3
2017-Oct-15 19:00N 34°09' E 135°00'223 6.5
2017-Oct-14 08:49N 34°59' E 139°24'411.8
2017-Oct-14 08:30N 35°01' E 139°28'612.0
2017-Oct-14 08:00N 35°04' E 139°34'612.5
2017-Oct-14 07:30N 35°07' E 139°41'613.0
2017-Oct-14 07:00N 35°12' E 139°46'612.1
2017-Oct-14 06:30N 35°18' E 139°44'612.0
2017-Oct-14 06:00N 35°24' E 139°43'612.9
2017-Oct-14 05:30N 35°28' E 139°49'3 2.2
2017-Oct-14 04:20N 35°31' E 139°51'2 6.6
2017-Oct-14 04:00N 35°31' E 139°53'1011.0
2017-Oct-14 03:07N 35°33' E 140°05'0 0.0
2017-Oct-13 23:39N 35°33' E 140°05'8 5.8
2017-Oct-13 22:15N 35°31' E 139°55'210.2
2017-Oct-13 22:01N 35°30' E 139°53'510.0
2017-Oct-13 21:30N 35°26' E 139°48'510.6
2017-Oct-13 21:01N 35°21' E 139°45'5 9.5
2017-Oct-13 20:31N 35°17' E 139°46'5 9.8
2017-Oct-13 20:01N 35°12' E 139°47'510.6
2017-Oct-13 19:31N 35°07' E 139°46'510.6
2017-Oct-13 19:00N 35°02' E 139°44'5 9.5
2017-Oct-13 18:30N 34°57' E 139°42'5 9.2
2017-Oct-13 18:01N 34°54' E 139°38'235 8.5
2017-Oct-12 14:11N 34°03' E 134°59'611.7
2017-Oct-12 13:41N 34°09' E 134°59'412.0
2017-Oct-12 13:21N 34°13' E 134°59'612.7
2017-Oct-12 12:51N 34°19' E 134°59'611.6
2017-Oct-12 12:22N 34°24' E 135°00'412.2
2017-Oct-12 12:00N 34°29' E 135°02'612.1
2017-Oct-12 11:30N 34°35' E 135°04'  
2017-Oct-10 04:46N 34°37' E 134°58'312.1
2017-Oct-10 04:30N 34°37' E 135°01'612.1
2017-Oct-10 04:00N 34°35' E 135°08'611.6
2017-Oct-10 03:30N 34°34' E 135°15'4 8.3
2017-Oct-10 03:01N 34°32' E 135°20'0 0.1
2017-Oct-10 02:24N 34°32' E 135°20'0 0.0
2017-Oct-10 00:42N 34°32' E 135°20'0 0.0
2017-Oct-10 00:24N 34°32' E 135°20'0 0.0
2017-Oct-09 23:36N 34°32' E 135°20'0 0.0
2017-Oct-09 23:30N 34°32' E 135°20'0 0.0
2017-Oct-09 22:54N 34°32' E 135°20'0 0.0
2017-Oct-09 20:42N 34°32' E 135°20'0 0.0
2017-Oct-09 20:30N 34°32' E 135°20'0 0.0
2017-Oct-09 20:00N 34°32' E 135°20'0 0.0
2017-Oct-09 16:30N 34°32' E 135°20'0 0.1
2017-Oct-09 16:00N 34°32' E 135°20'0 0.0
2017-Oct-09 14:48N 34°32' E 135°20'0 0.0
2017-Oct-09 14:24N 34°32' E 135°20'0 0.0
2017-Oct-09 13:12N 34°32' E 135°20'0 0.0
2017-Oct-09 13:00N 34°32' E 135°20'0 0.0
2017-Oct-09 11:54N 34°32' E 135°20'0 0.0
2017-Oct-09 11:30N 34°32' E 135°20'0 0.0
2017-Oct-09 10:24N 34°32' E 135°20'0 0.0
2017-Oct-09 09:48N 34°32' E 135°20'0 0.0
2017-Oct-09 08:48N 34°32' E 135°20'0 0.1
2017-Oct-09 08:24N 34°32' E 135°20'0 0.0
2017-Oct-09 08:00N 34°32' E 135°20'0 0.1
2017-Oct-09 07:30N 34°32' E 135°20'0 0.0
2017-Oct-09 07:00N 34°32' E 135°20'0 0.0
2017-Oct-09 06:24N 34°32' E 135°20'0 0.0
2017-Oct-09 02:48N 34°32' E 135°20'0 0.0
2017-Oct-09 01:36N 34°32' E 135°20'0 0.0
2017-Oct-09 01:18N 34°32' E 135°20'0 0.0
2017-Oct-08 23:54N 34°32' E 135°20'0 0.0
2017-Oct-08 23:30N 34°32' E 135°20'0 0.0
2017-Oct-08 23:00N 34°32' E 135°20'0 0.0
2017-Oct-08 22:16N 34°32' E 135°20'0 0.0
2017-Oct-08 22:01N 34°32' E 135°20'0 0.0
2017-Oct-08 21:30N 34°32' E 135°20'0 0.0
2017-Oct-08 21:01N 34°32' E 135°20'0 0.0
2017-Oct-08 20:31N 34°32' E 135°20'0 0.0
2017-Oct-08 19:58N 34°32' E 135°20'0 0.0
2017-Oct-08 19:22N 34°32' E 135°20'0 0.0
2017-Oct-08 19:00N 34°32' E 135°20'0 0.0
2017-Oct-08 18:31N 34°32' E 135°20'0 0.0
2017-Oct-08 17:40N 34°32' E 135°20'0 0.1
2017-Oct-08 17:30N 34°32' E 135°20'0 0.0
2017-Oct-08 17:01N 34°32' E 135°20'0 0.1
2017-Oct-08 16:27N 34°32' E 135°20'0 0.0
2017-Oct-08 16:00N 34°32' E 135°20'0 0.0
2017-Oct-08 15:21N 34°32' E 135°20'0 0.0
2017-Oct-08 15:01N 34°32' E 135°20'0 0.0
2017-Oct-08 14:24N 34°32' E 135°20'0 0.0
2017-Oct-08 14:01N 34°32' E 135°20'0 0.0
2017-Oct-08 13:31N 34°32' E 135°20'0 0.0
2017-Oct-08 13:01N 34°32' E 135°20'0 0.0
2017-Oct-08 12:30N 34°32' E 135°20'0 0.0
2017-Oct-08 12:00N 34°32' E 135°20'0 0.0
2017-Oct-08 11:31N 34°32' E 135°20'0 0.0
2017-Oct-08 11:00N 34°32' E 135°20'0 0.0
2017-Oct-08 10:30N 34°32' E 135°20'0 0.0
2017-Oct-08 10:01N 34°32' E 135°20'0 0.0
2017-Oct-08 09:30N 34°32' E 135°20'0 0.0
2017-Oct-08 09:00N 34°32' E 135°20'0 0.0
2017-Oct-08 08:30N 34°32' E 135°20'0 0.0
2017-Oct-08 07:57N 34°32' E 135°20'0 0.0
2017-Oct-08 07:16N 34°32' E 135°20'0 0.0
2017-Oct-08 06:59N 34°32' E 135°20'0 0.0
2017-Oct-08 06:30N 34°32' E 135°20'0 0.0
2017-Oct-08 05:59N 34°32' E 135°20'0 0.0
2017-Oct-08 05:05N 34°32' E 135°20'0 0.0
2017-Oct-08 04:59N 34°32' E 135°20'3 6.0
2017-Oct-08 04:30N 34°34' E 135°21'4 7.6
2017-Oct-08 04:00N 34°35' E 135°25'1 0.2
2017-Oct-08 00:41N 34°34' E 135°26'1 2.9
2017-Oct-08 00:27N 34°35' E 135°25'4 9.3
2017-Oct-08 00:00N 34°36' E 135°20'510.7
2017-Oct-07 23:30N 34°36' E 135°14'611.0
2017-Oct-07 23:00N 34°35' E 135°07'5 9.6
2017-Oct-07 22:30N 34°37' E 135°02'4 8.7
2017-Oct-07 22:00N 34°36' E 134°56'  
Track history (hours):
 
Tides and Currents Weather Stations Pressure Air Temp Water Temp Dewpoint Dewpoint Depression Visibility Wind Speed Wind Dir Waves Ship Positions

Shin Puropan Maru

Last reported at 2017-Oct-16 05:32 UTC. Time now 2017-Oct-19 12:59 UTC.
Position N 34°37' E 134°57'.

Length 66 m; draft 3.6 m.

Type: Ship (hazmat cat A). MMSI: 431100348.

Date/timePositionNaut miles runAvg speedWind from/ knotsBaromVisibWave heightAir tempDewpointWater temp
2017-Oct-16 05:32N 34°37' E 134°57'012.1
2017-Oct-16 05:30N 34°37' E 134°57'510.6
2017-Oct-16 05:01N 34°36' E 135°03'611.1
2017-Oct-16 04:30N 34°36' E 135°10'612.2
2017-Oct-16 04:00N 34°36' E 135°18'611.7
2017-Oct-16 03:31N 34°36' E 135°25'2 0.5
2017-Oct-15 23:50N 34°34' E 135°26'0 1.0
2017-Oct-15 23:30N 34°35' E 135°26'0 0.8
2017-Oct-15 23:00N 34°35' E 135°25'3 6.1
2017-Oct-15 22:31N 34°36' E 135°22'5 8.9
2017-Oct-15 21:59N 34°33' E 135°18'4 7.6
2017-Oct-15 21:30N 34°30' E 135°15'5 9.7
2017-Oct-15 20:57N 34°27' E 135°10'510.3
2017-Oct-15 20:30N 34°24' E 135°06'1110.6
2017-Oct-15 19:27N 34°14' E 134°60'511.3
2017-Oct-15 19:00N 34°09' E 135°00'223 6.5
2017-Oct-14 08:49N 34°59' E 139°24'411.8
2017-Oct-14 08:30N 35°01' E 139°28'612.0
2017-Oct-14 08:00N 35°04' E 139°34'612.5
2017-Oct-14 07:30N 35°07' E 139°41'613.0
2017-Oct-14 07:00N 35°12' E 139°46'612.1
2017-Oct-14 06:30N 35°18' E 139°44'612.0
2017-Oct-14 06:00N 35°24' E 139°43'612.9
2017-Oct-14 05:30N 35°28' E 139°49'3 2.2
2017-Oct-14 04:20N 35°31' E 139°51'2 6.6
2017-Oct-14 04:00N 35°31' E 139°53'1011.0
2017-Oct-14 03:07N 35°33' E 140°05'0 0.0
2017-Oct-13 23:39N 35°33' E 140°05'8 5.8
2017-Oct-13 22:15N 35°31' E 139°55'210.2
2017-Oct-13 22:01N 35°30' E 139°53'510.0
2017-Oct-13 21:30N 35°26' E 139°48'510.6
2017-Oct-13 21:01N 35°21' E 139°45'5 9.5
2017-Oct-13 20:31N 35°17' E 139°46'5 9.8
2017-Oct-13 20:01N 35°12' E 139°47'510.6
2017-Oct-13 19:31N 35°07' E 139°46'510.6
2017-Oct-13 19:00N 35°02' E 139°44'5 9.5
2017-Oct-13 18:30N 34°57' E 139°42'5 9.2
2017-Oct-13 18:01N 34°54' E 139°38'235 8.5
2017-Oct-12 14:11N 34°03' E 134°59'611.7
2017-Oct-12 13:41N 34°09' E 134°59'412.0
2017-Oct-12 13:21N 34°13' E 134°59'612.7
2017-Oct-12 12:51N 34°19' E 134°59'611.6
2017-Oct-12 12:22N 34°24' E 135°00'412.2
2017-Oct-12 12:00N 34°29' E 135°02'612.1
2017-Oct-12 11:30N 34°35' E 135°04'  
2017-Oct-10 04:46N 34°37' E 134°58'312.1
2017-Oct-10 04:30N 34°37' E 135°01'612.1
2017-Oct-10 04:00N 34°35' E 135°08'611.6
2017-Oct-10 03:30N 34°34' E 135°15'4 8.3
2017-Oct-10 03:01N 34°32' E 135°20'0 0.1
2017-Oct-10 02:24N 34°32' E 135°20'0 0.0
2017-Oct-10 00:42N 34°32' E 135°20'0 0.0
2017-Oct-10 00:24N 34°32' E 135°20'0 0.0
2017-Oct-09 23:36N 34°32' E 135°20'0 0.0
2017-Oct-09 23:30N 34°32' E 135°20'0 0.0
2017-Oct-09 22:54N 34°32' E 135°20'0 0.0
2017-Oct-09 20:42N 34°32' E 135°20'0 0.0
2017-Oct-09 20:30N 34°32' E 135°20'0 0.0
2017-Oct-09 20:00N 34°32' E 135°20'0 0.0
2017-Oct-09 16:30N 34°32' E 135°20'0 0.1
2017-Oct-09 16:00N 34°32' E 135°20'0 0.0
2017-Oct-09 14:48N 34°32' E 135°20'0 0.0
2017-Oct-09 14:24N 34°32' E 135°20'0 0.0
2017-Oct-09 13:12N 34°32' E 135°20'0 0.0
2017-Oct-09 13:00N 34°32' E 135°20'0 0.0
2017-Oct-09 11:54N 34°32' E 135°20'0 0.0
2017-Oct-09 11:30N 34°32' E 135°20'0 0.0
2017-Oct-09 10:24N 34°32' E 135°20'0 0.0
2017-Oct-09 09:48N 34°32' E 135°20'0 0.0
2017-Oct-09 08:48N 34°32' E 135°20'0 0.1
2017-Oct-09 08:24N 34°32' E 135°20'0 0.0
2017-Oct-09 08:00N 34°32' E 135°20'0 0.1
2017-Oct-09 07:30N 34°32' E 135°20'0 0.0
2017-Oct-09 07:00N 34°32' E 135°20'0 0.0
2017-Oct-09 06:24N 34°32' E 135°20'0 0.0
2017-Oct-09 02:48N 34°32' E 135°20'0 0.0
2017-Oct-09 01:36N 34°32' E 135°20'0 0.0
2017-Oct-09 01:18N 34°32' E 135°20'0 0.0
2017-Oct-08 23:54N 34°32' E 135°20'0 0.0
2017-Oct-08 23:30N 34°32' E 135°20'0 0.0
2017-Oct-08 23:00N 34°32' E 135°20'0 0.0
2017-Oct-08 22:16N 34°32' E 135°20'0 0.0
2017-Oct-08 22:01N 34°32' E 135°20'0 0.0
2017-Oct-08 21:30N 34°32' E 135°20'0 0.0
2017-Oct-08 21:01N 34°32' E 135°20'0 0.0
2017-Oct-08 20:31N 34°32' E 135°20'0 0.0
2017-Oct-08 19:58N 34°32' E 135°20'0 0.0
2017-Oct-08 19:22N 34°32' E 135°20'0 0.0
2017-Oct-08 19:00N 34°32' E 135°20'0 0.0
2017-Oct-08 18:31N 34°32' E 135°20'0 0.0
2017-Oct-08 17:40N 34°32' E 135°20'0 0.1
2017-Oct-08 17:30N 34°32' E 135°20'0 0.0
2017-Oct-08 17:01N 34°32' E 135°20'0 0.1
2017-Oct-08 16:27N 34°32' E 135°20'0 0.0
2017-Oct-08 16:00N 34°32' E 135°20'0 0.0
2017-Oct-08 15:21N 34°32' E 135°20'0 0.0
2017-Oct-08 15:01N 34°32' E 135°20'0 0.0
2017-Oct-08 14:24N 34°32' E 135°20'0 0.0
2017-Oct-08 14:01N 34°32' E 135°20'0 0.0
2017-Oct-08 13:31N 34°32' E 135°20'0 0.0
2017-Oct-08 13:01N 34°32' E 135°20'0 0.0
2017-Oct-08 12:30N 34°32' E 135°20'0 0.0
2017-Oct-08 12:00N 34°32' E 135°20'0 0.0
2017-Oct-08 11:31N 34°32' E 135°20'0 0.0
2017-Oct-08 11:00N 34°32' E 135°20'0 0.0
2017-Oct-08 10:30N 34°32' E 135°20'0 0.0
2017-Oct-08 10:01N 34°32' E 135°20'0 0.0
2017-Oct-08 09:30N 34°32' E 135°20'0 0.0
2017-Oct-08 09:00N 34°32' E 135°20'0 0.0
2017-Oct-08 08:30N 34°32' E 135°20'0 0.0
2017-Oct-08 07:57N 34°32' E 135°20'0 0.0
2017-Oct-08 07:16N 34°32' E 135°20'0 0.0
2017-Oct-08 06:59N 34°32' E 135°20'0 0.0
2017-Oct-08 06:30N 34°32' E 135°20'0 0.0
2017-Oct-08 05:59N 34°32' E 135°20'0 0.0
2017-Oct-08 05:05N 34°32' E 135°20'0 0.0
2017-Oct-08 04:59N 34°32' E 135°20'3 6.0
2017-Oct-08 04:30N 34°34' E 135°21'4 7.6
2017-Oct-08 04:00N 34°35' E 135°25'1 0.2
2017-Oct-08 00:41N 34°34' E 135°26'1 2.9
2017-Oct-08 00:27N 34°35' E 135°25'4 9.3
2017-Oct-08 00:00N 34°36' E 135°20'510.7
2017-Oct-07 23:30N 34°36' E 135°14'611.0
2017-Oct-07 23:00N 34°35' E 135°07'5 9.6
2017-Oct-07 22:30N 34°37' E 135°02'4 8.7
2017-Oct-07 22:00N 34°36' E 134°56'  

Dump ship's entire track history